createdAt,value
2018-12-08T00:01:06.794Z,99585.92
2018-12-08T00:03:32.966Z,99581.37
2018-12-08T00:05:59.306Z,99584.22
2018-12-08T00:08:25.482Z,99589.25
2018-12-08T00:10:51.641Z,99593.80
2018-12-08T00:13:17.860Z,99588.97
2018-12-08T00:15:44.052Z,99584.59
2018-12-08T00:18:10.193Z,99584.78
2018-12-08T00:20:36.395Z,99574.38
2018-12-08T00:23:02.542Z,99571.13
2018-12-08T00:25:28.857Z,99566.55
2018-12-08T00:27:55.073Z,99558.48
2018-12-08T00:33:20.252Z,99569.00
2018-12-08T00:35:46.402Z,99569.11
2018-12-08T00:38:12.540Z,99560.37
2018-12-08T00:40:38.740Z,99558.03
2018-12-08T00:43:05.125Z,99551.55
2018-12-08T00:45:32.213Z,99545.30
2018-12-08T00:47:59.327Z,99541.45
2018-12-08T00:53:10.969Z,99538.02
2018-12-08T00:55:37.225Z,99538.18
2018-12-08T00:58:03.393Z,99535.25
2018-12-08T01:03:09.710Z,99531.59
2018-12-08T01:05:35.977Z,99532.66
2018-12-08T01:08:02.147Z,99536.55
2018-12-08T01:10:28.343Z,99526.41
2018-12-08T01:12:54.511Z,99522.78
2018-12-08T01:15:20.668Z,99515.66
2018-12-08T01:17:46.855Z,99512.46
2018-12-08T01:20:13.029Z,99514.87
2018-12-08T01:22:39.190Z,99513.13
2018-12-08T01:25:05.653Z,99510.28
2018-12-08T01:27:31.825Z,99503.39
2018-12-08T01:29:57.990Z,99503.13
2018-12-08T01:32:24.201Z,99493.98
2018-12-08T01:34:50.506Z,99496.58
2018-12-08T01:37:16.781Z,99482.45
2018-12-08T01:39:42.962Z,99487.64
2018-12-08T01:42:09.108Z,99482.94
2018-12-08T01:44:35.293Z,99479.22
2018-12-08T01:47:01.480Z,99479.78
2018-12-08T01:49:27.634Z,99466.99
2018-12-08T01:51:54.005Z,99470.77
2018-12-08T01:54:20.247Z,99460.41
2018-12-08T01:56:46.567Z,99455.48
2018-12-08T01:59:12.770Z,99459.23
2018-12-08T02:01:39.001Z,99457.00
2018-12-08T02:04:05.176Z,99452.89
2018-12-08T02:06:31.352Z,99451.51
2018-12-08T02:08:57.572Z,99455.14
2018-12-08T02:11:25.126Z,99445.75
2018-12-08T02:13:51.682Z,99441.30
2018-12-08T02:16:17.917Z,99432.48
2018-12-08T02:18:44.101Z,99437.72
2018-12-08T02:21:10.267Z,99434.38
2018-12-08T02:23:36.505Z,99430.75
2018-12-08T02:26:02.683Z,99422.44
2018-12-08T02:28:28.877Z,99423.48
2018-12-08T02:30:55.111Z,99418.38
2018-12-08T02:33:21.331Z,99409.93
2018-12-08T02:35:47.513Z,99404.78
2018-12-08T02:38:13.736Z,99399.00
2018-12-08T02:43:16.210Z,99376.70
2018-12-08T02:45:42.365Z,99375.53
2018-12-08T02:48:08.520Z,99370.06
2018-12-08T02:50:34.722Z,99365.11
2018-12-08T02:53:00.899Z,99372.89
2018-12-08T02:55:27.081Z,99369.67
2018-12-08T02:57:53.291Z,99370.67
2018-12-08T03:00:19.489Z,99375.11
2018-12-08T03:02:45.672Z,99370.09
2018-12-08T03:05:11.904Z,99362.56
2018-12-08T03:07:39.014Z,99354.45
2018-12-08T03:10:05.338Z,99345.65
2018-12-08T03:13:13.089Z,99348.80
2018-12-08T03:15:39.236Z,99344.43
2018-12-08T03:18:05.397Z,99344.31
2018-12-08T03:20:31.582Z,99340.03
2018-12-08T03:22:57.718Z,99347.94
2018-12-08T03:25:23.842Z,99345.91
2018-12-08T03:27:50.031Z,99344.61
2018-12-08T03:30:16.194Z,99351.59
2018-12-08T03:32:42.338Z,99350.48
2018-12-08T03:35:08.513Z,99352.97
2018-12-08T03:37:34.669Z,99345.63
2018-12-08T03:40:00.828Z,99345.67
2018-12-08T03:42:27.129Z,99346.61
2018-12-08T03:44:53.273Z,99347.80
2018-12-08T03:47:19.425Z,99345.03
2018-12-08T03:49:45.625Z,99343.11
2018-12-08T03:52:11.765Z,99334.59
2018-12-08T03:54:37.922Z,99333.14
2018-12-08T03:57:04.145Z,99329.74
2018-12-08T03:59:30.315Z,99329.06
2018-12-08T04:01:56.463Z,99326.42
2018-12-08T04:04:22.686Z,99327.66
2018-12-08T04:06:48.878Z,99331.45
2018-12-08T04:09:15.067Z,99327.50
2018-12-08T04:11:41.273Z,99323.63
2018-12-08T04:14:07.481Z,99327.55
2018-12-08T04:16:33.700Z,99326.26
2018-12-08T04:18:59.937Z,99325.00
2018-12-08T04:21:26.096Z,99319.69
2018-12-08T04:23:52.254Z,99318.72
2018-12-08T04:26:18.454Z,99317.25
2018-12-08T04:28:44.625Z,99310.56
2018-12-08T04:31:10.775Z,99316.30
2018-12-08T04:33:36.961Z,99317.52
2018-12-08T04:36:03.139Z,99322.38
2018-12-08T04:38:29.305Z,99322.22
2018-12-08T04:40:55.485Z,99316.61
2018-12-08T04:43:21.645Z,99315.63
2018-12-08T04:45:47.825Z,99311.48
2018-12-08T04:48:14.053Z,99308.42
2018-12-08T04:50:40.261Z,99317.48
2018-12-08T04:53:06.498Z,99322.06
2018-12-08T04:55:32.688Z,99320.90
2018-12-08T04:57:58.844Z,99323.31
2018-12-08T05:00:25.013Z,99324.00
2018-12-08T05:02:51.235Z,99324.35
2018-12-08T05:05:17.387Z,99323.31
2018-12-08T05:07:43.525Z,99324.92
2018-12-08T05:10:09.724Z,99322.98
2018-12-08T05:12:35.878Z,99320.89
2018-12-08T05:15:02.220Z,99325.93
2018-12-08T05:17:28.405Z,99321.21
2018-12-08T05:19:54.589Z,99317.23
2018-12-08T05:22:20.765Z,99325.53
2018-12-08T05:24:46.970Z,99315.58
2018-12-08T05:27:13.157Z,99313.23
2018-12-08T05:29:39.337Z,99309.94
2018-12-08T05:32:05.589Z,99311.95
2018-12-08T05:34:31.755Z,99310.05
2018-12-08T05:36:57.917Z,99316.25
2018-12-08T05:39:24.097Z,99306.34
2018-12-08T05:41:50.265Z,99308.81
2018-12-08T05:44:20.882Z,99307.09
2018-12-08T05:46:50.983Z,99310.80
2018-12-08T05:49:21.167Z,99307.45
2018-12-08T05:51:50.609Z,99306.05
2018-12-08T05:54:21.115Z,99309.13
2018-12-08T05:56:50.115Z,99300.91
2018-12-08T05:59:16.733Z,99302.27
2018-12-08T06:01:46.813Z,99302.58
2018-12-08T06:04:16.199Z,99309.92
2018-12-08T06:06:42.421Z,99308.09
2018-12-08T06:09:09.238Z,99304.64
2018-12-08T06:11:35.373Z,99321.13
2018-12-08T06:14:01.679Z,99318.95
2018-12-08T06:16:27.860Z,99316.69
2018-12-08T06:18:54.011Z,99313.56
2018-12-08T06:21:26.052Z,99320.82
2018-12-08T06:23:52.287Z,99316.27
2018-12-08T06:26:18.960Z,99312.23
2018-12-08T06:28:45.101Z,99300.34
2018-12-08T06:31:11.325Z,99298.33
2018-12-08T06:33:37.456Z,99312.77
2018-12-08T06:36:03.640Z,99306.52
2018-12-08T06:38:29.826Z,99315.02
2018-12-08T06:40:55.977Z,99302.13
2018-12-08T06:43:22.109Z,99299.87
2018-12-08T06:45:48.429Z,99296.55
2018-12-08T06:48:14.584Z,99295.19
2018-12-08T06:50:40.741Z,99290.59
2018-12-08T06:53:06.926Z,99278.79
2018-12-08T06:55:33.063Z,99279.86
2018-12-08T06:57:59.242Z,99273.98
2018-12-08T07:00:25.441Z,99281.76
2018-12-08T07:02:51.885Z,99275.64
2018-12-08T07:05:18.090Z,99278.66
2018-12-08T07:07:44.245Z,99268.59
2018-12-08T07:10:10.393Z,99266.72
2018-12-08T07:12:37.155Z,99277.02
2018-12-08T07:15:03.760Z,99274.36
2018-12-08T07:17:29.913Z,99277.62
2018-12-08T07:19:56.049Z,99273.16
2018-12-08T07:22:22.261Z,99268.84
2018-12-08T07:24:48.429Z,99262.50
2018-12-08T07:27:14.612Z,99265.61
2018-12-08T07:29:41.385Z,99272.31
2018-12-08T07:32:07.547Z,99270.27
2018-12-08T07:34:33.735Z,99272.83
2018-12-08T07:36:59.917Z,99270.98
2018-12-08T07:39:26.081Z,99268.70
2018-12-08T07:41:52.226Z,99263.90
2018-12-08T07:44:18.404Z,99258.67
2018-12-08T07:46:44.549Z,99261.06
2018-12-08T07:49:10.757Z,99262.40
2018-12-08T07:51:36.962Z,99265.11
2018-12-08T07:54:03.266Z,99261.17
2018-12-08T07:56:29.418Z,99261.79
2018-12-08T07:58:55.610Z,99256.39
2018-12-08T08:01:21.793Z,99255.32
2018-12-08T08:03:47.965Z,99257.13
2018-12-08T08:06:14.154Z,99256.16
2018-12-08T08:08:40.298Z,99257.70
2018-12-08T08:11:06.457Z,99257.85
2018-12-08T08:13:32.644Z,99255.34
2018-12-08T08:15:58.841Z,99258.53
2018-12-08T08:18:24.968Z,99255.92
2018-12-08T08:20:51.121Z,99251.84
2018-12-08T08:23:17.257Z,99253.45
2018-12-08T08:25:43.396Z,99247.80
2018-12-08T08:28:09.604Z,99242.49
2018-12-08T08:30:35.777Z,99240.83
2018-12-08T08:33:01.969Z,99236.25
2018-12-08T08:35:28.161Z,99227.38
2018-12-08T08:37:54.306Z,99227.90
2018-12-08T08:40:20.456Z,99226.36
2018-12-08T08:42:46.646Z,99231.64
2018-12-08T08:45:12.793Z,99228.42
2018-12-08T08:47:38.933Z,99229.96
2018-12-08T08:50:07.106Z,99236.05
2018-12-08T08:52:33.278Z,99247.83
2018-12-08T08:54:59.431Z,99241.53
2018-12-08T08:57:25.669Z,99250.53
2018-12-08T08:59:51.813Z,99251.22
2018-12-08T09:02:17.961Z,99244.79
2018-12-08T09:04:44.220Z,99239.64
2018-12-08T09:07:10.383Z,99239.41
2018-12-08T09:09:36.702Z,99236.38
2018-12-08T09:12:03.066Z,99231.89
2018-12-08T09:14:29.229Z,99223.11
2018-12-08T09:16:55.397Z,99221.00
2018-12-08T09:19:21.570Z,99206.92
2018-12-08T09:21:47.713Z,99201.52
2018-12-08T09:24:13.853Z,99191.25
2018-12-08T09:26:40.166Z,99188.62
2018-12-08T09:29:06.387Z,99182.92
2018-12-08T09:31:32.539Z,99177.55
2018-12-08T09:33:58.725Z,99172.04
2018-12-08T09:36:24.892Z,99169.61
2018-12-08T09:38:51.058Z,99165.55
2018-12-08T09:41:17.236Z,99162.52
2018-12-08T09:43:43.409Z,99157.61
2018-12-08T09:46:09.548Z,99147.77
2018-12-08T09:48:35.737Z,99151.02
2018-12-08T09:51:01.891Z,99154.77
2018-12-08T09:53:28.040Z,99142.73
2018-12-08T09:55:54.257Z,99149.63
2018-12-08T09:58:20.429Z,99141.84
2018-12-08T10:00:46.577Z,99139.26
2018-12-08T10:03:12.845Z,99141.01
2018-12-08T10:05:39.065Z,99147.02
2018-12-08T10:08:05.215Z,99132.87
2018-12-08T10:10:31.408Z,99134.84
2018-12-08T10:12:57.568Z,99136.95
2018-12-08T10:15:23.741Z,99135.08
2018-12-08T10:17:49.937Z,99125.91
2018-12-08T10:20:16.086Z,99123.22
2018-12-08T10:22:42.320Z,99124.02
2018-12-08T10:25:08.586Z,99123.09
2018-12-08T10:27:34.729Z,99124.39
2018-12-08T10:30:00.857Z,99120.95
2018-12-08T10:32:27.053Z,99121.70
2018-12-08T10:34:53.222Z,99128.38
2018-12-08T10:37:19.365Z,99125.22
2018-12-08T10:39:45.585Z,99128.53
2018-12-08T10:42:11.721Z,99118.13
2018-12-08T10:44:37.902Z,99120.60
2018-12-08T10:47:04.247Z,99118.94
2018-12-08T10:49:30.409Z,99119.88
2018-12-08T10:51:56.560Z,99118.20
2018-12-08T10:54:24.743Z,99113.57
2018-12-08T10:56:50.927Z,99115.13
2018-12-08T10:59:21.311Z,99106.74
2018-12-08T11:01:53.618Z,99112.39
2018-12-08T11:04:19.780Z,99109.51
2018-12-08T11:06:45.961Z,99113.47
2018-12-08T11:09:12.185Z,99103.86
2018-12-08T11:11:38.346Z,99109.11
2018-12-08T11:14:04.543Z,99112.83
2018-12-08T11:16:30.724Z,99114.06
2018-12-08T11:18:56.879Z,99114.54
2018-12-08T11:21:23.107Z,99115.15
2018-12-08T11:23:49.318Z,99108.68
2018-12-08T11:26:15.471Z,99097.41
2018-12-08T11:28:41.658Z,99100.41
2018-12-08T11:31:07.874Z,99100.25
2018-12-08T11:33:34.030Z,99100.38
2018-12-08T11:36:00.205Z,99093.77
2018-12-08T11:38:26.401Z,99085.39
2018-12-08T11:40:52.573Z,99077.75
2018-12-08T11:43:18.722Z,99065.86
2018-12-08T11:45:44.937Z,99067.23
2018-12-08T11:48:11.121Z,99068.05
2018-12-08T11:50:37.349Z,99071.73
2018-12-08T11:53:03.573Z,99073.59
2018-12-08T11:55:30.344Z,99072.08
2018-12-08T11:57:57.091Z,99075.55
2018-12-08T12:00:23.310Z,99077.17
2018-12-08T12:02:49.466Z,99077.17
2018-12-08T12:05:15.627Z,99075.23
2018-12-08T12:07:41.857Z,99078.86
2018-12-08T12:10:08.116Z,99076.42
2018-12-08T12:12:34.277Z,99078.46
2018-12-08T12:15:00.440Z,99076.48
2018-12-08T12:17:26.589Z,99075.56
2018-12-08T12:19:52.738Z,99083.70
2018-12-08T12:22:18.909Z,99086.13
2018-12-08T12:24:45.132Z,99090.20
2018-12-08T12:27:11.297Z,99085.78
2018-12-08T12:29:37.545Z,99091.05
2018-12-08T12:32:04.604Z,99082.66
2018-12-08T12:34:30.865Z,99077.09
2018-12-08T12:36:57.065Z,99075.34
2018-12-08T12:39:23.215Z,99079.64
2018-12-08T12:41:49.361Z,99081.28
2018-12-08T12:44:15.531Z,99072.55
2018-12-08T12:46:41.684Z,99069.92
2018-12-08T12:49:07.850Z,99066.38
2018-12-08T12:51:34.033Z,99061.52
2018-12-08T12:54:00.186Z,99067.76
2018-12-08T12:56:26.340Z,99067.43
2018-12-08T12:58:52.545Z,99060.87
2018-12-08T13:01:18.717Z,99063.90
2018-12-08T13:03:44.870Z,99063.66
2018-12-08T13:06:11.198Z,99059.53
2018-12-08T13:08:37.346Z,99056.37
2018-12-08T13:11:03.518Z,99049.58
2018-12-08T13:13:29.689Z,99047.45
2018-12-08T13:15:55.844Z,99032.42
2018-12-08T13:18:22.013Z,99036.02
2018-12-08T13:20:48.198Z,99029.00
2018-12-08T13:23:14.341Z,99025.91
2018-12-08T13:25:40.489Z,99028.58
2018-12-08T13:28:06.677Z,99032.36
2018-12-08T13:30:32.862Z,99023.50
2018-12-08T13:32:59.020Z,99028.71
2018-12-08T13:35:37.401Z,99027.19
2018-12-08T13:38:03.533Z,99017.43
2018-12-08T13:43:06.499Z,99010.03
2018-12-08T13:45:32.670Z,99010.13
2018-12-08T13:47:58.818Z,99007.49
2018-12-08T13:50:25.006Z,99005.88
2018-12-08T13:52:51.157Z,98997.65
2018-12-08T13:55:17.445Z,98999.52
2018-12-08T13:57:43.634Z,98999.00
2018-12-08T14:00:09.820Z,98999.30
2018-12-08T14:02:35.984Z,98988.00
2018-12-08T14:05:02.289Z,98997.84
2018-12-08T14:07:28.440Z,98998.36
2018-12-08T14:09:54.623Z,98994.54
2018-12-08T14:12:20.805Z,99002.18
2018-12-08T14:14:46.965Z,99003.57
2018-12-08T14:17:13.130Z,99002.32
2018-12-08T14:19:39.333Z,99004.23
2018-12-08T14:22:05.503Z,99001.84
2018-12-08T14:24:31.673Z,98997.70
2018-12-08T14:26:57.869Z,98988.69
2018-12-08T14:29:24.014Z,98991.17
2018-12-08T14:31:50.564Z,98997.86
2018-12-08T14:34:17.083Z,98998.37
2018-12-08T14:36:43.238Z,98997.22
2018-12-08T14:39:09.377Z,99005.83
2018-12-08T14:41:35.551Z,99014.61
2018-12-08T14:44:01.741Z,99017.92
2018-12-08T14:46:27.901Z,99018.77
2018-12-08T14:48:54.117Z,99013.62
2018-12-08T14:51:20.262Z,99007.12
2018-12-08T14:53:46.435Z,99000.99
2018-12-08T14:56:13.117Z,98995.41
2018-12-08T14:58:39.270Z,98990.66
2018-12-08T15:01:05.453Z,98997.14
2018-12-08T15:03:31.681Z,98999.41
2018-12-08T15:05:57.817Z,99001.38
2018-12-08T15:08:23.973Z,99012.39
2018-12-08T15:10:51.153Z,99021.79
2018-12-08T15:13:17.397Z,99031.48
2018-12-08T15:15:43.569Z,99036.56
2018-12-08T15:18:09.773Z,99032.09
2018-12-08T15:20:35.934Z,99026.41
2018-12-08T15:23:02.081Z,99021.23
2018-12-08T15:25:28.281Z,99025.99
2018-12-08T15:27:54.436Z,99036.52
2018-12-08T15:30:20.595Z,99047.71
2018-12-08T15:32:46.772Z,99045.88
2018-12-08T15:35:13.053Z,99050.14
2018-12-08T15:37:39.258Z,99050.16
2018-12-08T15:40:05.913Z,99059.52
2018-12-08T15:42:32.072Z,99056.70
2018-12-08T15:44:58.349Z,99043.79
2018-12-08T15:47:24.513Z,99046.20
2018-12-08T15:49:50.661Z,99043.44
2018-12-08T15:52:16.938Z,99044.09
2018-12-08T15:54:43.114Z,99039.47
2018-12-08T15:57:09.281Z,99031.48
2018-12-08T15:59:35.441Z,99035.11
2018-12-08T16:02:01.771Z,99048.75
2018-12-08T16:04:27.905Z,99043.98
2018-12-08T16:06:54.076Z,99025.86
2018-12-08T16:09:21.774Z,99016.56
2018-12-08T16:11:47.929Z,99006.88
2018-12-08T16:14:14.081Z,99014.52
2018-12-08T16:16:40.302Z,99034.52
2018-12-08T16:19:06.471Z,99038.30
2018-12-08T16:21:32.674Z,99040.20
2018-12-08T16:23:58.866Z,99048.45
2018-12-08T16:26:25.049Z,99055.23
2018-12-08T16:28:51.194Z,99063.37
2018-12-08T16:31:17.419Z,99058.13
2018-12-08T16:33:43.568Z,99067.84
2018-12-08T16:36:09.720Z,99077.22
2018-12-08T16:38:36.026Z,99072.05
2018-12-08T16:41:02.182Z,99067.16
2018-12-08T16:43:28.373Z,99059.38
2018-12-08T16:45:54.565Z,99056.14
2018-12-08T16:48:20.875Z,99048.15
2018-12-08T16:50:47.040Z,99045.44
2018-12-08T16:53:13.225Z,99042.31
2018-12-08T16:55:39.385Z,99043.58
2018-12-08T16:58:05.588Z,99045.91
2018-12-08T17:00:31.853Z,99048.25
2018-12-08T17:02:58.013Z,99061.34
2018-12-08T17:05:24.194Z,99073.39
2018-12-08T17:07:50.371Z,99077.28
2018-12-08T17:10:16.574Z,99079.45
2018-12-08T17:12:42.765Z,99072.27
2018-12-08T17:15:09.205Z,99068.12
2018-12-08T17:17:35.364Z,99071.70
2018-12-08T17:20:01.683Z,99082.34
2018-12-08T17:22:27.863Z,99084.52
2018-12-08T17:24:54.032Z,99082.05
2018-12-08T17:27:20.316Z,99082.25
2018-12-08T17:29:46.513Z,99078.33
2018-12-08T17:32:12.673Z,99068.77
2018-12-08T17:34:38.889Z,99069.03
2018-12-08T17:37:05.201Z,99073.69
2018-12-08T17:39:31.360Z,99078.92
2018-12-08T17:41:57.512Z,99090.23
2018-12-08T17:44:23.660Z,99078.62
2018-12-08T17:46:49.857Z,99083.56
2018-12-08T17:49:15.997Z,99086.59
2018-12-08T17:54:14.058Z,99087.72
2018-12-08T17:56:40.230Z,99093.36
2018-12-08T17:59:06.435Z,99090.97
2018-12-08T18:01:32.618Z,99087.47
2018-12-08T18:03:58.790Z,99090.32
2018-12-08T18:06:25.130Z,99096.33
2018-12-08T18:08:51.314Z,99094.04
2018-12-08T18:11:17.477Z,99083.69
2018-12-08T18:13:43.650Z,99083.50
2018-12-08T18:16:10.526Z,99080.81
2018-12-08T18:18:36.710Z,99090.46
2018-12-08T18:21:03.181Z,99092.30
2018-12-08T18:23:29.497Z,99097.84
2018-12-08T18:25:55.654Z,99086.69
2018-12-08T18:28:21.836Z,99084.38
2018-12-08T18:30:47.986Z,99085.71
2018-12-08T18:33:14.149Z,99094.06
2018-12-08T18:35:40.333Z,99093.95
2018-12-08T18:40:57.798Z,99093.75
2018-12-08T18:43:27.001Z,99101.84
2018-12-08T18:49:08.957Z,99097.06
2018-12-08T18:51:36.063Z,99090.27
2018-12-08T18:54:02.222Z,99088.64
2018-12-08T18:56:28.438Z,99091.77
2018-12-08T18:58:55.256Z,99091.27
2018-12-08T19:01:21.640Z,99097.37
2018-12-08T19:03:48.445Z,99092.59
2018-12-08T19:06:14.628Z,99096.55
2018-12-08T19:08:40.785Z,99094.59
2018-12-08T19:11:06.970Z,99093.48
2018-12-08T19:13:33.155Z,99090.05
2018-12-08T19:15:59.865Z,99086.38
2018-12-08T19:18:26.043Z,99081.52
2018-12-08T19:20:52.197Z,99088.86
2018-12-08T19:23:18.354Z,99091.27
2018-12-08T19:25:44.531Z,99085.45
2018-12-08T19:28:12.138Z,99085.62
2018-12-08T19:33:14.929Z,99090.31
2018-12-08T19:35:41.209Z,99090.90
2018-12-08T19:38:16.050Z,99100.28
2018-12-08T19:40:50.530Z,99108.30
2018-12-08T19:43:22.458Z,99100.31
2018-12-08T19:45:48.623Z,99094.69
2018-12-08T19:48:14.789Z,99095.12
2018-12-08T19:50:40.994Z,99091.34
2018-12-08T19:53:07.171Z,99083.73
2018-12-08T19:55:33.410Z,99093.09
2018-12-08T19:57:59.594Z,99087.89
2018-12-08T20:00:25.750Z,99085.47
2018-12-08T20:02:51.943Z,99092.11
2018-12-08T20:05:18.204Z,99092.56
2018-12-08T20:07:44.373Z,99092.11
2018-12-08T20:10:10.537Z,99093.64
2018-12-08T20:12:36.719Z,99088.25
2018-12-08T20:15:04.532Z,99096.71
2018-12-08T20:17:30.676Z,99089.33
2018-12-08T20:19:56.853Z,99093.44
2018-12-08T20:22:22.998Z,99100.55
2018-12-08T20:24:49.157Z,99100.89
2018-12-08T20:27:15.343Z,99102.68
2018-12-08T20:29:41.481Z,99104.36
2018-12-08T20:32:07.637Z,99111.64
2018-12-08T20:34:33.816Z,99114.03
2018-12-08T20:36:59.969Z,99108.08
2018-12-08T20:39:26.109Z,99108.54
2018-12-08T20:41:52.337Z,99099.11
2018-12-08T20:44:18.509Z,99104.75
2018-12-08T20:46:44.655Z,99102.65
2018-12-08T20:49:10.849Z,99108.48
2018-12-08T20:51:37.270Z,99101.37
2018-12-08T20:54:03.408Z,99107.28
2018-12-08T20:56:29.597Z,99111.13
2018-12-08T20:58:55.744Z,99116.11
2018-12-08T21:01:21.928Z,99125.78
2018-12-08T21:03:48.114Z,99117.33
2018-12-08T21:06:14.277Z,99121.44
2018-12-08T21:08:40.430Z,99121.20
2018-12-08T21:11:06.613Z,99124.03
2018-12-08T21:13:32.753Z,99126.41
2018-12-08T21:15:58.906Z,99135.88
2018-12-08T21:18:25.071Z,99142.89
2018-12-08T21:20:51.233Z,99137.20
2018-12-08T21:23:17.392Z,99135.03
2018-12-08T21:25:43.584Z,99139.48
2018-12-08T21:28:09.733Z,99135.36
2018-12-08T21:30:35.894Z,99139.59
2018-12-08T21:33:02.094Z,99136.55
2018-12-08T21:35:28.238Z,99137.88
2018-12-08T21:37:54.386Z,99133.69
2018-12-08T21:40:24.385Z,99137.59
2018-12-08T21:42:50.545Z,99139.90
2018-12-08T21:45:16.694Z,99144.73
2018-12-08T21:47:42.904Z,99145.75
2018-12-08T21:50:09.082Z,99142.22
2018-12-08T21:52:35.231Z,99143.91
2018-12-08T21:55:01.409Z,99140.05
2018-12-08T21:57:27.565Z,99139.55
2018-12-08T21:59:53.716Z,99135.36
2018-12-08T22:02:20.012Z,99137.39
2018-12-08T22:04:46.158Z,99139.55
2018-12-08T22:07:12.325Z,99146.23
2018-12-08T22:09:38.535Z,99139.88
2018-12-08T22:12:04.733Z,99140.23
2018-12-08T22:14:30.890Z,99139.37
2018-12-08T22:16:57.825Z,99140.69
2018-12-08T22:19:23.987Z,99143.88
2018-12-08T22:21:50.138Z,99145.72
2018-12-08T22:24:17.543Z,99148.37
2018-12-08T22:26:43.720Z,99150.55
2018-12-08T22:29:09.864Z,99150.88
2018-12-08T22:31:36.093Z,99161.53
2018-12-08T22:34:02.390Z,99157.97
2018-12-08T22:36:28.539Z,99157.72
2018-12-08T22:38:54.725Z,99158.41
2018-12-08T22:41:20.874Z,99152.70
2018-12-08T22:43:47.057Z,99153.50
2018-12-08T22:46:13.241Z,99158.88
2018-12-08T22:48:39.390Z,99162.23
2018-12-08T22:51:05.557Z,99163.55
2018-12-08T22:53:31.725Z,99155.28
2018-12-08T22:55:57.872Z,99161.56
2018-12-08T22:58:24.036Z,99160.89
2018-12-08T23:00:50.350Z,99156.59
2018-12-08T23:03:16.494Z,99163.95
2018-12-08T23:05:42.656Z,99172.88
2018-12-08T23:08:08.873Z,99174.74
2018-12-08T23:10:35.061Z,99173.20
2018-12-08T23:13:01.261Z,99168.86
2018-12-08T23:15:27.452Z,99176.27
2018-12-08T23:17:53.612Z,99174.53
2018-12-08T23:20:19.757Z,99166.73
2018-12-08T23:22:45.974Z,99173.58
2018-12-08T23:25:12.288Z,99166.70
2018-12-08T23:27:38.437Z,99162.98
2018-12-08T23:30:07.762Z,99159.20
2018-12-08T23:32:33.917Z,99156.31
2018-12-08T23:35:00.137Z,99162.23
2018-12-08T23:37:26.350Z,99160.69
2018-12-08T23:39:52.489Z,99168.08
2018-12-08T23:42:18.652Z,99155.77
2018-12-08T23:44:44.864Z,99164.75
2018-12-08T23:47:11.045Z,99164.78
2018-12-08T23:49:37.522Z,99168.38
2018-12-08T23:52:03.713Z,99173.55
2018-12-08T23:54:29.897Z,99181.69
2018-12-08T23:56:56.036Z,99188.25
2018-12-08T23:59:22.258Z,99200.23
